sensor_id;sensor_type;location;lat;lon;timestamp;P1;durP1;ratioP1;P2;durP2;ratioP2
58137;SDS011;43955;47.362;18.930;2023-01-25T00:01:06;69.28;;;30.17;;
58137;SDS011;43955;47.362;18.930;2023-01-25T00:03:33;64.90;;;28.70;;
58137;SDS011;43955;47.362;18.930;2023-01-25T00:06:01;55.40;;;26.70;;
58137;SDS011;43955;47.362;18.930;2023-01-25T00:08:28;56.03;;;26.15;;
58137;SDS011;43955;47.362;18.930;2023-01-25T00:10:56;56.80;;;24.63;;
58137;SDS011;43955;47.362;18.930;2023-01-25T00:13:24;49.40;;;24.10;;
58137;SDS011;43955;47.362;18.930;2023-01-25T00:15:52;45.12;;;22.33;;
58137;SDS011;43955;47.362;18.930;2023-01-25T00:18:20;53.20;;;24.67;;
58137;SDS011;43955;47.362;18.930;2023-01-25T00:20:47;50.83;;;23.50;;
58137;SDS011;43955;47.362;18.930;2023-01-25T00:23:14;54.92;;;27.85;;
58137;SDS011;43955;47.362;18.930;2023-01-25T00:25:42;52.95;;;24.15;;
58137;SDS011;43955;47.362;18.930;2023-01-25T00:28:09;56.75;;;26.90;;
58137;SDS011;43955;47.362;18.930;2023-01-25T00:30:36;60.17;;;26.05;;
58137;SDS011;43955;47.362;18.930;2023-01-25T00:33:32;52.85;;;25.52;;
58137;SDS011;43955;47.362;18.930;2023-01-25T00:38:59;50.63;;;22.77;;
58137;SDS011;43955;47.362;18.930;2023-01-25T00:41:26;87.80;;;32.53;;
58137;SDS011;43955;47.362;18.930;2023-01-25T00:43:54;47.72;;;22.58;;
58137;SDS011;43955;47.362;18.930;2023-01-25T00:46:21;51.17;;;21.98;;
58137;SDS011;43955;47.362;18.930;2023-01-25T00:48:51;55.03;;;25.40;;
58137;SDS011;43955;47.362;18.930;2023-01-25T00:51:20;50.80;;;22.90;;
58137;SDS011;43955;47.362;18.930;2023-01-25T00:53:48;51.22;;;24.37;;
58137;SDS011;43955;47.362;18.930;2023-01-25T00:56:15;39.58;;;19.20;;
58137;SDS011;43955;47.362;18.930;2023-01-25T00:58:42;47.40;;;19.60;;
58137;SDS011;43955;47.362;18.930;2023-01-25T01:01:10;45.65;;;20.58;;
58137;SDS011;43955;47.362;18.930;2023-01-25T01:03:42;44.05;;;22.13;;
58137;SDS011;43955;47.362;18.930;2023-01-25T01:06:10;43.78;;;19.37;;
58137;SDS011;43955;47.362;18.930;2023-01-25T01:08:38;40.88;;;18.73;;
58137;SDS011;43955;47.362;18.930;2023-01-25T01:11:10;45.88;;;19.92;;
58137;SDS011;43955;47.362;18.930;2023-01-25T01:13:38;39.03;;;18.85;;
58137;SDS011;43955;47.362;18.930;2023-01-25T01:16:06;40.22;;;17.23;;
58137;SDS011;43955;47.362;18.930;2023-01-25T01:18:41;37.63;;;16.50;;
58137;SDS011;43955;47.362;18.930;2023-01-25T01:21:11;32.88;;;14.95;;
58137;SDS011;43955;47.362;18.930;2023-01-25T01:23:38;35.78;;;18.05;;
58137;SDS011;43955;47.362;18.930;2023-01-25T01:26:07;37.15;;;17.17;;
58137;SDS011;43955;47.362;18.930;2023-01-25T01:28:36;34.85;;;15.63;;
58137;SDS011;43955;47.362;18.930;2023-01-25T01:31:17;30.92;;;14.95;;
58137;SDS011;43955;47.362;18.930;2023-01-25T01:33:48;32.63;;;13.98;;
58137;SDS011;43955;47.362;18.930;2023-01-25T01:36:16;26.10;;;12.90;;
58137;SDS011;43955;47.362;18.930;2023-01-25T01:38:45;49.85;;;15.88;;
58137;SDS011;43955;47.362;18.930;2023-01-25T01:41:13;32.92;;;13.60;;
58137;SDS011;43955;47.362;18.930;2023-01-25T01:43:41;31.52;;;13.82;;
58137;SDS011;43955;47.362;18.930;2023-01-25T01:53:55;47.65;;;19.00;;
58137;SDS011;43955;47.362;18.930;2023-01-25T01:59:13;55.55;;;20.85;;
58137;SDS011;43955;47.362;18.930;2023-01-25T02:01:40;54.03;;;20.15;;
58137;SDS011;43955;47.362;18.930;2023-01-25T02:04:08;51.85;;;19.50;;
58137;SDS011;43955;47.362;18.930;2023-01-25T02:06:40;45.58;;;19.98;;
58137;SDS011;43955;47.362;18.930;2023-01-25T02:09:11;31.27;;;16.50;;
58137;SDS011;43955;47.362;18.930;2023-01-25T02:11:40;44.50;;;21.77;;
58137;SDS011;43955;47.362;18.930;2023-01-25T02:14:07;44.33;;;19.02;;
58137;SDS011;43955;47.362;18.930;2023-01-25T02:16:35;53.80;;;20.02;;
58137;SDS011;43955;47.362;18.930;2023-01-25T02:19:02;46.08;;;18.65;;
58137;SDS011;43955;47.362;18.930;2023-01-25T02:21:34;38.92;;;18.30;;
58137;SDS011;43955;47.362;18.930;2023-01-25T02:24:26;27.17;;;14.40;;
58137;SDS011;43955;47.362;18.930;2023-01-25T02:26:55;31.12;;;14.75;;
58137;SDS011;43955;47.362;18.930;2023-01-25T02:29:23;28.33;;;13.45;;
58137;SDS011;43955;47.362;18.930;2023-01-25T02:31:59;43.67;;;17.48;;
58137;SDS011;43955;47.362;18.930;2023-01-25T02:34:28;55.78;;;21.12;;
58137;SDS011;43955;47.362;18.930;2023-01-25T02:36:56;43.78;;;17.35;;
58137;SDS011;43955;47.362;18.930;2023-01-25T02:39:23;40.12;;;18.10;;
58137;SDS011;43955;47.362;18.930;2023-01-25T02:41:52;41.72;;;16.73;;
58137;SDS011;43955;47.362;18.930;2023-01-25T02:46:47;28.35;;;13.88;;
58137;SDS011;43955;47.362;18.930;2023-01-25T02:49:15;27.92;;;12.90;;
58137;SDS011;43955;47.362;18.930;2023-01-25T02:51:44;35.22;;;15.63;;
58137;SDS011;43955;47.362;18.930;2023-01-25T02:54:14;25.12;;;12.85;;
58137;SDS011;43955;47.362;18.930;2023-01-25T02:56:42;90.97;;;39.83;;
58137;SDS011;43955;47.362;18.930;2023-01-25T02:59:10;82.57;;;34.22;;
58137;SDS011;43955;47.362;18.930;2023-01-25T03:01:40;31.00;;;16.37;;
58137;SDS011;43955;47.362;18.930;2023-01-25T03:04:09;38.17;;;17.02;;
58137;SDS011;43955;47.362;18.930;2023-01-25T03:06:37;37.13;;;18.70;;
58137;SDS011;43955;47.362;18.930;2023-01-25T03:09:07;92.82;;;39.15;;
58137;SDS011;43955;47.362;18.930;2023-01-25T03:11:36;28.70;;;12.00;;
58137;SDS011;43955;47.362;18.930;2023-01-25T03:14:04;23.90;;;11.12;;
58137;SDS011;43955;47.362;18.930;2023-01-25T03:16:31;34.15;;;12.23;;
58137;SDS011;43955;47.362;18.930;2023-01-25T03:19:00;25.12;;;11.00;;
58137;SDS011;43955;47.362;18.930;2023-01-25T03:21:27;23.95;;;11.25;;
58137;SDS011;43955;47.362;18.930;2023-01-25T03:23:56;26.73;;;12.52;;
58137;SDS011;43955;47.362;18.930;2023-01-25T03:26:27;28.10;;;11.95;;
58137;SDS011;43955;47.362;18.930;2023-01-25T03:28:56;24.42;;;11.68;;
58137;SDS011;43955;47.362;18.930;2023-01-25T03:31:23;32.88;;;13.62;;
58137;SDS011;43955;47.362;18.930;2023-01-25T03:33:51;30.42;;;13.93;;
58137;SDS011;43955;47.362;18.930;2023-01-25T03:36:20;28.50;;;12.60;;
58137;SDS011;43955;47.362;18.930;2023-01-25T03:38:47;28.87;;;13.15;;
58137;SDS011;43955;47.362;18.930;2023-01-25T03:41:14;29.08;;;13.00;;
58137;SDS011;43955;47.362;18.930;2023-01-25T03:43:43;34.17;;;16.80;;
58137;SDS011;43955;47.362;18.930;2023-01-25T03:46:15;45.55;;;19.67;;
58137;SDS011;43955;47.362;18.930;2023-01-25T03:48:42;47.05;;;21.92;;
58137;SDS011;43955;47.362;18.930;2023-01-25T03:51:10;32.15;;;16.25;;
58137;SDS011;43955;47.362;18.930;2023-01-25T03:53:37;34.13;;;17.27;;
58137;SDS011;43955;47.362;18.930;2023-01-25T03:56:05;39.90;;;21.33;;
58137;SDS011;43955;47.362;18.930;2023-01-25T03:58:35;28.45;;;11.30;;
58137;SDS011;43955;47.362;18.930;2023-01-25T04:01:05;24.02;;;10.82;;
58137;SDS011;43955;47.362;18.930;2023-01-25T04:03:33;19.10;;;9.35;;
58137;SDS011;43955;47.362;18.930;2023-01-25T04:06:01;21.85;;;10.80;;
58137;SDS011;43955;47.362;18.930;2023-01-25T04:08:28;22.08;;;10.13;;
58137;SDS011;43955;47.362;18.930;2023-01-25T04:11:02;21.42;;;9.88;;
58137;SDS011;43955;47.362;18.930;2023-01-25T04:13:31;22.02;;;10.07;;
58137;SDS011;43955;47.362;18.930;2023-01-25T04:16:04;28.73;;;12.63;;
58137;SDS011;43955;47.362;18.930;2023-01-25T04:18:35;40.50;;;15.88;;
58137;SDS011;43955;47.362;18.930;2023-01-25T04:21:03;79.50;;;26.25;;
58137;SDS011;43955;47.362;18.930;2023-01-25T04:23:30;44.40;;;17.60;;
58137;SDS011;43955;47.362;18.930;2023-01-25T04:26:02;44.28;;;19.20;;
58137;SDS011;43955;47.362;18.930;2023-01-25T04:28:32;45.08;;;21.73;;
58137;SDS011;43955;47.362;18.930;2023-01-25T04:31:00;30.35;;;14.38;;
58137;SDS011;43955;47.362;18.930;2023-01-25T04:33:30;138.62;;;50.60;;
58137;SDS011;43955;47.362;18.930;2023-01-25T04:35:58;34.90;;;16.90;;
58137;SDS011;43955;47.362;18.930;2023-01-25T04:38:25;25.02;;;11.75;;
58137;SDS011;43955;47.362;18.930;2023-01-25T04:40:53;29.98;;;11.90;;
58137;SDS011;43955;47.362;18.930;2023-01-25T04:43:21;22.05;;;11.27;;
58137;SDS011;43955;47.362;18.930;2023-01-25T04:45:49;21.87;;;9.82;;
58137;SDS011;43955;47.362;18.930;2023-01-25T04:48:17;18.75;;;9.40;;
58137;SDS011;43955;47.362;18.930;2023-01-25T04:50:45;25.75;;;10.82;;
58137;SDS011;43955;47.362;18.930;2023-01-25T04:53:13;27.00;;;12.48;;
58137;SDS011;43955;47.362;18.930;2023-01-25T04:55:45;26.52;;;11.80;;
58137;SDS011;43955;47.362;18.930;2023-01-25T04:58:14;24.23;;;11.17;;
58137;SDS011;43955;47.362;18.930;2023-01-25T05:00:41;30.95;;;12.70;;
58137;SDS011;43955;47.362;18.930;2023-01-25T05:03:09;24.87;;;11.20;;
58137;SDS011;43955;47.362;18.930;2023-01-25T05:05:37;22.58;;;11.00;;
58137;SDS011;43955;47.362;18.930;2023-01-25T05:08:05;21.45;;;11.25;;
58137;SDS011;43955;47.362;18.930;2023-01-25T05:10:33;32.30;;;15.55;;
58137;SDS011;43955;47.362;18.930;2023-01-25T05:13:03;32.20;;;15.05;;
58137;SDS011;43955;47.362;18.930;2023-01-25T05:15:31;26.60;;;13.38;;
58137;SDS011;43955;47.362;18.930;2023-01-25T05:17:59;25.52;;;11.25;;
58137;SDS011;43955;47.362;18.930;2023-01-25T05:20:27;22.85;;;11.43;;
58137;SDS011;43955;47.362;18.930;2023-01-25T05:22:54;25.55;;;11.35;;
58137;SDS011;43955;47.362;18.930;2023-01-25T05:25:22;23.80;;;11.27;;
58137;SDS011;43955;47.362;18.930;2023-01-25T05:28:08;23.58;;;11.52;;
58137;SDS011;43955;47.362;18.930;2023-01-25T05:30:37;23.02;;;11.23;;
58137;SDS011;43955;47.362;18.930;2023-01-25T05:33:04;22.95;;;11.73;;
58137;SDS011;43955;47.362;18.930;2023-01-25T05:35:32;23.65;;;10.77;;
58137;SDS011;43955;47.362;18.930;2023-01-25T05:37:59;24.27;;;11.12;;
58137;SDS011;43955;47.362;18.930;2023-01-25T05:40:26;30.52;;;13.88;;
58137;SDS011;43955;47.362;18.930;2023-01-25T05:42:57;36.03;;;15.70;;
58137;SDS011;43955;47.362;18.930;2023-01-25T05:45:26;39.30;;;20.60;;
58137;SDS011;43955;47.362;18.930;2023-01-25T05:47:56;33.00;;;16.67;;
58137;SDS011;43955;47.362;18.930;2023-01-25T05:50:24;30.85;;;15.23;;
58137;SDS011;43955;47.362;18.930;2023-01-25T05:52:53;33.10;;;15.15;;
58137;SDS011;43955;47.362;18.930;2023-01-25T05:55:20;33.58;;;16.48;;
58137;SDS011;43955;47.362;18.930;2023-01-25T05:57:48;31.23;;;15.38;;
58137;SDS011;43955;47.362;18.930;2023-01-25T06:00:17;35.10;;;16.73;;
58137;SDS011;43955;47.362;18.930;2023-01-25T06:02:44;34.67;;;16.50;;
58137;SDS011;43955;47.362;18.930;2023-01-25T06:05:12;36.17;;;17.17;;
58137;SDS011;43955;47.362;18.930;2023-01-25T06:07:40;34.08;;;16.30;;
58137;SDS011;43955;47.362;18.930;2023-01-25T06:10:07;26.87;;;14.15;;
58137;SDS011;43955;47.362;18.930;2023-01-25T06:12:35;29.70;;;14.75;;
58137;SDS011;43955;47.362;18.930;2023-01-25T06:15:02;31.12;;;15.15;;
58137;SDS011;43955;47.362;18.930;2023-01-25T06:17:31;33.97;;;16.25;;
58137;SDS011;43955;47.362;18.930;2023-01-25T06:19:58;44.70;;;20.85;;
58137;SDS011;43955;47.362;18.930;2023-01-25T06:22:26;35.38;;;18.48;;
58137;SDS011;43955;47.362;18.930;2023-01-25T06:24:53;58.13;;;26.20;;
58137;SDS011;43955;47.362;18.930;2023-01-25T06:27:21;54.90;;;25.55;;
58137;SDS011;43955;47.362;18.930;2023-01-25T06:29:48;97.95;;;36.83;;
58137;SDS011;43955;47.362;18.930;2023-01-25T06:32:16;119.13;;;49.28;;
58137;SDS011;43955;47.362;18.930;2023-01-25T06:34:43;170.43;;;60.30;;
58137;SDS011;43955;47.362;18.930;2023-01-25T06:37:15;107.90;;;41.20;;
58137;SDS011;43955;47.362;18.930;2023-01-25T06:39:42;107.05;;;40.97;;
58137;SDS011;43955;47.362;18.930;2023-01-25T06:42:09;79.30;;;33.45;;
58137;SDS011;43955;47.362;18.930;2023-01-25T06:44:36;63.22;;;26.23;;
58137;SDS011;43955;47.362;18.930;2023-01-25T06:47:04;45.72;;;23.38;;
58137;SDS011;43955;47.362;18.930;2023-01-25T06:49:34;62.53;;;27.30;;
58137;SDS011;43955;47.362;18.930;2023-01-25T06:52:01;54.55;;;26.58;;
58137;SDS011;43955;47.362;18.930;2023-01-25T06:54:29;59.60;;;28.08;;
58137;SDS011;43955;47.362;18.930;2023-01-25T06:56:56;52.03;;;26.77;;
58137;SDS011;43955;47.362;18.930;2023-01-25T06:59:24;60.60;;;28.50;;
58137;SDS011;43955;47.362;18.930;2023-01-25T07:01:51;49.63;;;22.48;;
58137;SDS011;43955;47.362;18.930;2023-01-25T07:04:18;46.05;;;20.62;;
58137;SDS011;43955;47.362;18.930;2023-01-25T07:06:46;50.50;;;24.40;;
58137;SDS011;43955;47.362;18.930;2023-01-25T07:09:16;51.85;;;23.67;;
58137;SDS011;43955;47.362;18.930;2023-01-25T07:11:50;47.25;;;21.20;;
58137;SDS011;43955;47.362;18.930;2023-01-25T07:14:17;48.50;;;22.20;;
58137;SDS011;43955;47.362;18.930;2023-01-25T07:16:44;49.45;;;23.58;;
58137;SDS011;43955;47.362;18.930;2023-01-25T07:19:12;47.62;;;23.27;;
58137;SDS011;43955;47.362;18.930;2023-01-25T07:21:39;63.67;;;27.83;;
58137;SDS011;43955;47.362;18.930;2023-01-25T07:24:06;57.80;;;26.58;;
58137;SDS011;43955;47.362;18.930;2023-01-25T07:26:34;46.70;;;23.10;;
58137;SDS011;43955;47.362;18.930;2023-01-25T07:29:01;47.78;;;23.48;;
58137;SDS011;43955;47.362;18.930;2023-01-25T07:31:28;50.70;;;22.85;;
58137;SDS011;43955;47.362;18.930;2023-01-25T07:33:56;48.97;;;22.80;;
58137;SDS011;43955;47.362;18.930;2023-01-25T07:36:24;52.53;;;23.90;;
58137;SDS011;43955;47.362;18.930;2023-01-25T07:38:55;52.13;;;23.20;;
58137;SDS011;43955;47.362;18.930;2023-01-25T07:41:23;53.50;;;26.83;;
58137;SDS011;43955;47.362;18.930;2023-01-25T07:43:51;47.50;;;23.45;;
58137;SDS011;43955;47.362;18.930;2023-01-25T07:46:20;59.80;;;24.42;;
58137;SDS011;43955;47.362;18.930;2023-01-25T07:48:47;29.95;;;13.32;;
58137;SDS011;43955;47.362;18.930;2023-01-25T07:51:17;26.52;;;13.25;;
58137;SDS011;43955;47.362;18.930;2023-01-25T07:56:30;28.90;;;13.88;;
58137;SDS011;43955;47.362;18.930;2023-01-25T07:58:59;23.77;;;10.50;;
58137;SDS011;43955;47.362;18.930;2023-01-25T08:01:30;30.40;;;12.52;;
58137;SDS011;43955;47.362;18.930;2023-01-25T08:04:00;24.35;;;10.90;;
58137;SDS011;43955;47.362;18.930;2023-01-25T08:06:30;28.55;;;11.15;;
58137;SDS011;43955;47.362;18.930;2023-01-25T08:09:03;22.42;;;11.93;;
58137;SDS011;43955;47.362;18.930;2023-01-25T08:11:32;19.95;;;10.38;;
58137;SDS011;43955;47.362;18.930;2023-01-25T08:14:00;23.62;;;11.68;;
58137;SDS011;43955;47.362;18.930;2023-01-25T08:16:29;25.15;;;11.43;;
58137;SDS011;43955;47.362;18.930;2023-01-25T08:18:58;20.23;;;10.27;;
58137;SDS011;43955;47.362;18.930;2023-01-25T08:21:26;20.62;;;9.70;;
58137;SDS011;43955;47.362;18.930;2023-01-25T08:23:58;21.30;;;9.50;;
58137;SDS011;43955;47.362;18.930;2023-01-25T08:26:29;16.25;;;8.27;;
58137;SDS011;43955;47.362;18.930;2023-01-25T08:28:56;20.73;;;8.73;;
58137;SDS011;43955;47.362;18.930;2023-01-25T08:31:25;20.90;;;8.35;;
58137;SDS011;43955;47.362;18.930;2023-01-25T08:33:54;17.40;;;8.25;;
58137;SDS011;43955;47.362;18.930;2023-01-25T08:36:22;16.23;;;9.15;;
58137;SDS011;43955;47.362;18.930;2023-01-25T08:38:54;18.48;;;8.90;;
58137;SDS011;43955;47.362;18.930;2023-01-25T08:41:33;13.93;;;7.70;;
58137;SDS011;43955;47.362;18.930;2023-01-25T08:44:01;24.05;;;9.00;;
58137;SDS011;43955;47.362;18.930;2023-01-25T08:46:29;18.80;;;8.88;;
58137;SDS011;43955;47.362;18.930;2023-01-25T08:48:59;20.00;;;9.57;;
58137;SDS011;43955;47.362;18.930;2023-01-25T08:51:28;18.15;;;9.52;;
58137;SDS011;43955;47.362;18.930;2023-01-25T08:54:01;15.63;;;8.70;;
58137;SDS011;43955;47.362;18.930;2023-01-25T08:56:29;21.25;;;9.70;;
58137;SDS011;43955;47.362;18.930;2023-01-25T08:58:57;21.75;;;9.90;;
58137;SDS011;43955;47.362;18.930;2023-01-25T09:01:24;29.20;;;10.48;;
58137;SDS011;43955;47.362;18.930;2023-01-25T09:03:52;20.67;;;9.88;;
58137;SDS011;43955;47.362;18.930;2023-01-25T09:06:20;30.30;;;9.52;;
58137;SDS011;43955;47.362;18.930;2023-01-25T09:08:47;19.12;;;9.20;;
58137;SDS011;43955;47.362;18.930;2023-01-25T09:11:15;23.20;;;11.05;;
58137;SDS011;43955;47.362;18.930;2023-01-25T09:13:44;15.57;;;8.68;;
58137;SDS011;43955;47.362;18.930;2023-01-25T09:16:12;17.70;;;8.80;;
58137;SDS011;43955;47.362;18.930;2023-01-25T09:18:42;19.67;;;9.90;;
58137;SDS011;43955;47.362;18.930;2023-01-25T09:21:11;24.12;;;10.27;;
58137;SDS011;43955;47.362;18.930;2023-01-25T09:23:40;20.45;;;9.73;;
58137;SDS011;43955;47.362;18.930;2023-01-25T09:26:23;25.17;;;9.20;;
58137;SDS011;43955;47.362;18.930;2023-01-25T09:28:51;18.10;;;8.90;;
58137;SDS011;43955;47.362;18.930;2023-01-25T09:31:20;18.35;;;8.82;;
58137;SDS011;43955;47.362;18.930;2023-01-25T09:33:50;19.90;;;9.02;;
58137;SDS011;43955;47.362;18.930;2023-01-25T09:36:18;17.62;;;8.40;;
58137;SDS011;43955;47.362;18.930;2023-01-25T09:38:46;18.75;;;7.75;;
58137;SDS011;43955;47.362;18.930;2023-01-25T09:41:24;21.45;;;9.00;;
58137;SDS011;43955;47.362;18.930;2023-01-25T09:46:58;22.45;;;8.35;;
58137;SDS011;43955;47.362;18.930;2023-01-25T09:55:17;21.98;;;9.27;;
58137;SDS011;43955;47.362;18.930;2023-01-25T09:57:47;21.30;;;10.07;;
58137;SDS011;43955;47.362;18.930;2023-01-25T10:00:18;23.90;;;11.25;;
58137;SDS011;43955;47.362;18.930;2023-01-25T10:02:53;19.17;;;9.18;;
58137;SDS011;43955;47.362;18.930;2023-01-25T10:05:24;18.33;;;9.55;;
58137;SDS011;43955;47.362;18.930;2023-01-25T10:08:20;22.02;;;10.82;;
58137;SDS011;43955;47.362;18.930;2023-01-25T10:10:57;15.38;;;8.02;;
58137;SDS011;43955;47.362;18.930;2023-01-25T10:13:28;20.55;;;9.35;;
58137;SDS011;43955;47.362;18.930;2023-01-25T10:16:02;39.63;;;11.77;;
58137;SDS011;43955;47.362;18.930;2023-01-25T10:18:39;21.17;;;10.13;;
58137;SDS011;43955;47.362;18.930;2023-01-25T10:21:28;20.62;;;10.25;;
58137;SDS011;43955;47.362;18.930;2023-01-25T10:24:12;20.27;;;10.23;;
58137;SDS011;43955;47.362;18.930;2023-01-25T10:26:43;24.27;;;10.93;;
58137;SDS011;43955;47.362;18.930;2023-01-25T10:31:48;24.00;;;9.95;;
58137;SDS011;43955;47.362;18.930;2023-01-25T10:37:01;23.77;;;9.68;;
58137;SDS011;43955;47.362;18.930;2023-01-25T10:39:53;19.42;;;10.07;;
58137;SDS011;43955;47.362;18.930;2023-01-25T10:42:25;23.67;;;9.43;;
58137;SDS011;43955;47.362;18.930;2023-01-25T10:44:53;18.85;;;9.15;;
58137;SDS011;43955;47.362;18.930;2023-01-25T10:47:25;23.83;;;10.15;;
58137;SDS011;43955;47.362;18.930;2023-01-25T10:49:54;23.92;;;10.30;;
58137;SDS011;43955;47.362;18.930;2023-01-25T10:57:44;24.00;;;9.98;;
58137;SDS011;43955;47.362;18.930;2023-01-25T11:00:33;19.60;;;9.57;;
58137;SDS011;43955;47.362;18.930;2023-01-25T11:03:03;25.90;;;12.73;;
58137;SDS011;43955;47.362;18.930;2023-01-25T11:05:32;23.58;;;10.50;;
58137;SDS011;43955;47.362;18.930;2023-01-25T11:08:23;30.42;;;9.68;;
58137;SDS011;43955;47.362;18.930;2023-01-25T11:10:52;20.92;;;10.60;;
58137;SDS011;43955;47.362;18.930;2023-01-25T11:13:27;28.83;;;11.52;;
58137;SDS011;43955;47.362;18.930;2023-01-25T11:16:10;24.23;;;10.63;;
58137;SDS011;43955;47.362;18.930;2023-01-25T11:19:01;23.33;;;10.15;;
58137;SDS011;43955;47.362;18.930;2023-01-25T11:21:31;20.70;;;8.73;;
58137;SDS011;43955;47.362;18.930;2023-01-25T11:26:34;24.98;;;11.75;;
58137;SDS011;43955;47.362;18.930;2023-01-25T11:29:19;23.80;;;10.73;;
58137;SDS011;43955;47.362;18.930;2023-01-25T11:31:49;19.05;;;10.40;;
58137;SDS011;43955;47.362;18.930;2023-01-25T11:34:23;21.73;;;11.02;;
58137;SDS011;43955;47.362;18.930;2023-01-25T11:39:49;25.42;;;10.45;;
58137;SDS011;43955;47.362;18.930;2023-01-25T11:48:09;18.48;;;9.95;;
58137;SDS011;43955;47.362;18.930;2023-01-25T11:59:24;21.62;;;10.43;;
58137;SDS011;43955;47.362;18.930;2023-01-25T12:10:34;28.70;;;11.02;;
58137;SDS011;43955;47.362;18.930;2023-01-25T12:15:53;23.17;;;10.25;;
58137;SDS011;43955;47.362;18.930;2023-01-25T12:32:55;23.80;;;10.70;;
58137;SDS011;43955;47.362;18.930;2023-01-25T12:50:12;34.15;;;10.70;;
58137;SDS011;43955;47.362;18.930;2023-01-25T12:52:22;21.67;;;10.55;;
58137;SDS011;43955;47.362;18.930;2023-01-25T12:54:54;22.60;;;11.05;;
58137;SDS011;43955;47.362;18.930;2023-01-25T12:59:57;23.92;;;9.88;;
58137;SDS011;43955;47.362;18.930;2023-01-25T13:05:39;21.52;;;9.85;;
58137;SDS011;43955;47.362;18.930;2023-01-25T13:11:15;20.25;;;9.60;;
58137;SDS011;43955;47.362;18.930;2023-01-25T13:13:46;22.95;;;9.70;;
58137;SDS011;43955;47.362;18.930;2023-01-25T13:18:56;24.58;;;9.85;;
58137;SDS011;43955;47.362;18.930;2023-01-25T13:24:12;24.52;;;10.30;;
58137;SDS011;43955;47.362;18.930;2023-01-25T13:32:10;21.42;;;10.38;;
58137;SDS011;43955;47.362;18.930;2023-01-25T13:37:29;23.40;;;10.73;;
58137;SDS011;43955;47.362;18.930;2023-01-25T13:40:01;23.77;;;10.05;;
58137;SDS011;43955;47.362;18.930;2023-01-25T13:42:33;20.42;;;9.07;;
58137;SDS011;43955;47.362;18.930;2023-01-25T13:45:14;21.33;;;9.35;;
58137;SDS011;43955;47.362;18.930;2023-01-25T13:50:31;19.83;;;9.27;;
58137;SDS011;43955;47.362;18.930;2023-01-25T13:53:04;23.62;;;10.35;;
58137;SDS011;43955;47.362;18.930;2023-01-25T13:55:52;20.83;;;9.40;;
58137;SDS011;43955;47.362;18.930;2023-01-25T14:03:29;21.52;;;9.10;;
58137;SDS011;43955;47.362;18.930;2023-01-25T14:05:59;20.73;;;8.95;;
58137;SDS011;43955;47.362;18.930;2023-01-25T14:08:32;22.27;;;8.63;;
58137;SDS011;43955;47.362;18.930;2023-01-25T14:10:59;22.98;;;8.40;;
58137;SDS011;43955;47.362;18.930;2023-01-25T14:13:26;18.98;;;8.32;;
58137;SDS011;43955;47.362;18.930;2023-01-25T14:16:01;28.23;;;9.13;;
58137;SDS011;43955;47.362;18.930;2023-01-25T14:21:09;19.50;;;9.13;;
58137;SDS011;43955;47.362;18.930;2023-01-25T14:26:21;20.23;;;8.48;;
58137;SDS011;43955;47.362;18.930;2023-01-25T14:28:52;23.20;;;9.25;;
58137;SDS011;43955;47.362;18.930;2023-01-25T14:31:33;20.20;;;8.63;;
58137;SDS011;43955;47.362;18.930;2023-01-25T14:34:01;20.42;;;9.18;;
58137;SDS011;43955;47.362;18.930;2023-01-25T14:36:32;23.23;;;9.75;;
58137;SDS011;43955;47.362;18.930;2023-01-25T14:39:12;25.83;;;10.73;;
58137;SDS011;43955;47.362;18.930;2023-01-25T14:41:42;42.72;;;13.52;;
58137;SDS011;43955;47.362;18.930;2023-01-25T14:44:26;65.10;;;13.23;;
58137;SDS011;43955;47.362;18.930;2023-01-25T14:49:48;26.85;;;11.23;;
58137;SDS011;43955;47.362;18.930;2023-01-25T14:52:16;43.22;;;11.65;;
58137;SDS011;43955;47.362;18.930;2023-01-25T14:54:50;25.70;;;11.70;;
58137;SDS011;43955;47.362;18.930;2023-01-25T14:59:55;35.53;;;11.93;;
58137;SDS011;43955;47.362;18.930;2023-01-25T15:05:16;33.13;;;13.62;;
58137;SDS011;43955;47.362;18.930;2023-01-25T15:07:51;36.30;;;13.35;;
58137;SDS011;43955;47.362;18.930;2023-01-25T15:10:24;29.55;;;12.35;;
58137;SDS011;43955;47.362;18.930;2023-01-25T15:16:00;36.40;;;14.20;;
58137;SDS011;43955;47.362;18.930;2023-01-25T15:21:27;26.55;;;12.40;;
58137;SDS011;43955;47.362;18.930;2023-01-25T15:23:58;37.47;;;14.02;;
58137;SDS011;43955;47.362;18.930;2023-01-25T15:26:31;26.12;;;12.13;;
58137;SDS011;43955;47.362;18.930;2023-01-25T15:29:00;27.08;;;12.20;;
58137;SDS011;43955;47.362;18.930;2023-01-25T15:31:31;29.58;;;12.85;;
58137;SDS011;43955;47.362;18.930;2023-01-25T15:34:00;28.70;;;12.30;;
58137;SDS011;43955;47.362;18.930;2023-01-25T15:36:28;26.40;;;12.13;;
58137;SDS011;43955;47.362;18.930;2023-01-25T15:38:56;35.67;;;13.07;;
58137;SDS011;43955;47.362;18.930;2023-01-25T15:41:23;27.23;;;11.95;;
58137;SDS011;43955;47.362;18.930;2023-01-25T15:43:51;26.70;;;12.82;;
58137;SDS011;43955;47.362;18.930;2023-01-25T15:46:19;24.95;;;13.65;;
58137;SDS011;43955;47.362;18.930;2023-01-25T15:48:49;45.33;;;15.93;;
58137;SDS011;43955;47.362;18.930;2023-01-25T15:51:17;26.70;;;13.48;;
58137;SDS011;43955;47.362;18.930;2023-01-25T15:53:44;52.62;;;15.52;;
58137;SDS011;43955;47.362;18.930;2023-01-25T15:56:19;30.02;;;12.57;;
58137;SDS011;43955;47.362;18.930;2023-01-25T15:58:49;51.67;;;14.50;;
58137;SDS011;43955;47.362;18.930;2023-01-25T16:01:18;24.73;;;12.32;;
58137;SDS011;43955;47.362;18.930;2023-01-25T16:03:47;28.62;;;13.85;;
58137;SDS011;43955;47.362;18.930;2023-01-25T16:08:58;34.10;;;12.45;;
58137;SDS011;43955;47.362;18.930;2023-01-25T16:11:26;30.33;;;11.45;;
58137;SDS011;43955;47.362;18.930;2023-01-25T16:13:53;46.03;;;13.13;;
58137;SDS011;43955;47.362;18.930;2023-01-25T16:16:21;26.00;;;12.93;;
58137;SDS011;43955;47.362;18.930;2023-01-25T16:18:50;29.58;;;12.52;;
58137;SDS011;43955;47.362;18.930;2023-01-25T16:21:17;42.97;;;13.48;;
58137;SDS011;43955;47.362;18.930;2023-01-25T16:23:45;32.97;;;12.55;;
58137;SDS011;43955;47.362;18.930;2023-01-25T16:26:22;38.15;;;13.85;;
58137;SDS011;43955;47.362;18.930;2023-01-25T16:28:50;48.42;;;16.60;;
58137;SDS011;43955;47.362;18.930;2023-01-25T16:31:18;37.20;;;17.17;;
58137;SDS011;43955;47.362;18.930;2023-01-25T16:33:59;40.92;;;17.70;;
58137;SDS011;43955;47.362;18.930;2023-01-25T16:36:26;40.97;;;16.90;;
58137;SDS011;43955;47.362;18.930;2023-01-25T16:38:54;32.90;;;15.27;;
58137;SDS011;43955;47.362;18.930;2023-01-25T16:41:22;31.92;;;15.45;;
58137;SDS011;43955;47.362;18.930;2023-01-25T16:43:49;41.42;;;14.32;;
58137;SDS011;43955;47.362;18.930;2023-01-25T16:46:21;34.53;;;14.98;;
58137;SDS011;43955;47.362;18.930;2023-01-25T16:48:50;34.33;;;15.70;;
58137;SDS011;43955;47.362;18.930;2023-01-25T16:51:19;41.28;;;15.85;;
58137;SDS011;43955;47.362;18.930;2023-01-25T16:53:49;29.45;;;14.18;;
58137;SDS011;43955;47.362;18.930;2023-01-25T16:56:28;40.47;;;15.32;;
58137;SDS011;43955;47.362;18.930;2023-01-25T16:58:59;30.30;;;14.07;;